Time;durP1;ratioP1;P1;durP2;ratioP2;P2;SDS_P1;SDS_P2;PMS_P1;PMS_P2;Temp;Humidity;BMP_temperature;BMP_pressure;BME280_temperature;BME280_humidity;BME280_pressure;Samples;Min_cycle;Max_cycle;Signal;HPM_P1;HPM_P2
2024/04/01 00:00:42;;;;;;;8.63;1.60;;;12.70;99.90;;;;;;5022957;28;20479;-67
2024/04/01 00:03:08;;;;;;;10.50;2.10;;;12.70;99.90;;;;;;5022175;28;20461;-66
2024/04/01 00:05:35;;;;;;;7.63;1.60;;;12.70;99.90;;;;;;5021768;28;20453;-66
2024/04/01 00:08:01;;;;;;;9.83;2.00;;;12.60;99.90;;;;;;5016578;28;20939;-67
2024/04/01 00:10:28;;;;;;;10.33;2.30;;;12.70;99.90;;;;;;5023251;28;20496;-66
2024/04/01 00:12:57;;;;;;;9.87;2.20;;;12.70;99.90;;;;;;5022997;28;20495;-67
2024/04/01 00:15:27;;;;;;;9.00;1.80;;;12.60;99.90;;;;;;5035790;28;20533;-67
2024/04/01 00:17:53;;;;;;;12.50;2.43;;;12.60;99.90;;;;;;5022919;28;20449;-66
2024/04/01 00:20:20;;;;;;;8.43;1.93;;;12.40;99.90;;;;;;5023041;28;20453;-66
2024/04/01 00:22:46;;;;;;;10.07;2.00;;;12.50;99.90;;;;;;5020151;28;20565;-66
2024/04/01 00:25:13;;;;;;;8.63;2.47;;;12.40;99.90;;;;;;5021347;28;20491;-67
2024/04/01 00:27:39;;;;;;;8.40;1.60;;;12.30;99.90;;;;;;5020424;28;20453;-67
2024/04/01 00:30:09;;;;;;;12.37;2.10;;;12.40;99.90;;;;;;5021318;28;20939;-66
2024/04/01 00:32:35;;;;;;;10.83;2.30;;;12.50;99.90;;;;;;5020611;28;20487;-67
2024/04/01 00:35:02;;;;;;;10.67;1.80;;;12.40;99.90;;;;;;5014561;28;20465;-67
2024/04/01 00:37:28;;;;;;;9.37;1.83;;;12.40;99.90;;;;;;5020320;28;20460;-66
2024/04/01 00:39:55;;;;;;;9.90;1.87;;;12.30;99.90;;;;;;5023646;28;20528;-67
2024/04/01 00:42:21;;;;;;;11.57;2.00;;;12.20;99.90;;;;;;5023434;28;20460;-67
2024/04/01 00:44:48;;;;;;;12.30;2.73;;;12.30;99.90;;;;;;5023594;28;20486;-67
2024/04/01 00:47:15;;;;;;;13.23;2.70;;;12.30;99.90;;;;;;5023362;28;21060;-66
2024/04/01 00:49:42;;;;;;;9.50;2.13;;;12.30;99.90;;;;;;5020221;28;21276;-67
2024/04/01 00:52:09;;;;;;;9.67;2.00;;;12.10;99.90;;;;;;5023454;28;20486;-66
2024/04/01 00:54:36;;;;;;;8.60;2.33;;;12.10;99.90;;;;;;5023350;28;20518;-67
2024/04/01 00:57:03;;;;;;;11.77;2.50;;;11.90;99.90;;;;;;5024690;28;20449;-67
2024/04/01 00:59:30;;;;;;;10.37;2.60;;;11.80;99.90;;;;;;5026325;28;20445;-66
2024/04/01 01:01:57;;;;;;;9.20;1.80;;;11.90;99.90;;;;;;5028742;28;20578;-67
2024/04/01 01:04:26;;;;;;;9.43;1.97;;;12.00;99.90;;;;;;5028302;28;20467;-66
2024/04/01 01:06:52;;;;;;;10.00;2.13;;;12.20;99.90;;;;;;5044772;28;20453;-67
2024/04/01 01:09:19;;;;;;;10.10;2.53;;;12.10;99.90;;;;;;5030250;28;20450;-67
2024/04/01 01:11:45;;;;;;;8.20;1.93;;;12.00;99.90;;;;;;5029228;28;20487;-66
2024/04/01 01:14:12;;;;;;;9.07;1.87;;;11.80;99.90;;;;;;5028450;28;20483;-67
2024/04/01 01:16:38;;;;;;;9.93;2.00;;;11.70;99.90;;;;;;5029446;28;20457;-68
2024/04/01 01:19:09;;;;;;;11.47;2.43;;;11.60;99.90;;;;;;5030085;28;20441;-67
2024/04/01 01:21:37;;;;;;;12.20;2.30;;;11.70;99.90;;;;;;5029556;28;20457;-66
2024/04/01 01:24:05;;;;;;;10.93;3.10;;;11.90;99.90;;;;;;5029569;28;20884;-67
2024/04/01 01:26:31;;;;;;;13.10;2.70;;;12.00;99.90;;;;;;5025439;28;20503;-67
2024/04/01 01:28:58;;;;;;;9.50;2.73;;;11.90;99.90;;;;;;5029646;28;20451;-67
2024/04/01 01:31:25;;;;;;;9.90;2.70;;;11.90;99.90;;;;;;5029876;28;20476;-67
2024/04/01 01:33:52;;;;;;;9.90;1.90;;;11.70;99.90;;;;;;5028564;28;20822;-66
2024/04/01 01:36:18;;;;;;;12.60;2.13;;;11.60;99.90;;;;;;5029240;28;20451;-67
2024/04/01 01:38:45;;;;;;;9.13;2.13;;;11.50;99.90;;;;;;5029039;28;20969;-67
2024/04/01 01:41:12;;;;;;;8.43;2.23;;;11.50;99.90;;;;;;5029464;28;20457;-67
2024/04/01 01:43:39;;;;;;;9.30;2.47;;;11.60;99.90;;;;;;5028945;28;20494;-67
2024/04/01 01:46:05;;;;;;;8.57;1.60;;;11.60;99.90;;;;;;5028870;28;20807;-68
2024/04/01 01:48:32;;;;;;;11.07;2.27;;;11.60;99.90;;;;;;5027802;28;20453;-67
2024/04/01 01:50:58;;;;;;;10.47;2.13;;;11.50;99.90;;;;;;5029529;28;20439;-66
2024/04/01 01:53:25;;;;;;;9.40;2.03;;;11.60;99.90;;;;;;5029459;28;20485;-67
2024/04/01 01:55:51;;;;;;;11.43;2.27;;;11.60;99.90;;;;;;5028968;28;20829;-67
2024/04/01 01:58:19;;;;;;;8.97;2.23;;;11.60;99.90;;;;;;5029780;28;20454;-67
2024/04/01 02:00:45;;;;;;;12.50;3.77;;;11.50;99.90;;;;;;5029301;28;20441;-67
2024/04/01 02:03:12;;;;;;;13.37;2.30;;;11.50;99.90;;;;;;5029258;28;20446;-67
2024/04/01 02:05:40;;;;;;;10.10;4.10;;;11.40;99.90;;;;;;5029217;28;20489;-67
2024/04/01 02:08:07;;;;;;;10.23;2.33;;;11.40;99.90;;;;;;5029490;28;21218;-68
2024/04/01 02:10:35;;;;;;;9.80;2.30;;;11.30;99.90;;;;;;5029517;28;20446;-67
2024/04/01 02:13:04;;;;;;;11.23;2.10;;;11.30;99.90;;;;;;5028103;28;21301;-66
2024/04/01 02:15:31;;;;;;;8.40;1.80;;;11.30;99.90;;;;;;5029072;28;20480;-68
2024/04/01 02:17:58;;;;;;;8.97;1.43;;;11.30;99.90;;;;;;5029588;28;20451;-65
2024/04/01 02:20:24;;;;;;;9.10;2.00;;;11.20;99.90;;;;;;5029321;28;20451;-68
2024/04/01 02:22:51;;;;;;;7.03;1.60;;;11.20;99.90;;;;;;5028701;28;20502;-66
2024/04/01 02:25:17;;;;;;;9.40;1.90;;;11.20;99.90;;;;;;5029224;28;20461;-66
2024/04/01 02:27:45;;;;;;;14.00;3.20;;;11.20;99.90;;;;;;5028736;28;20983;-65
2024/04/01 02:30:11;;;;;;;12.40;2.40;;;11.00;99.90;;;;;;5029379;28;20450;-67
2024/04/01 02:32:39;;;;;;;9.23;1.87;;;11.00;99.90;;;;;;5028677;28;21145;-67
2024/04/01 02:35:06;;;;;;;9.57;2.30;;;11.00;99.90;;;;;;5021304;28;20471;-67
2024/04/01 02:37:33;;;;;;;12.57;2.40;;;11.10;99.90;;;;;;5029100;28;20488;-67
2024/04/01 02:39:59;;;;;;;9.90;2.27;;;11.10;99.90;;;;;;5028871;28;20452;-68
2024/04/01 02:42:26;;;;;;;10.77;2.27;;;11.10;99.90;;;;;;5028989;28;20808;-67
2024/04/01 02:44:52;;;;;;;7.70;1.90;;;11.00;99.90;;;;;;5027097;28;21069;-67
2024/04/01 02:47:19;;;;;;;8.67;1.77;;;11.00;99.90;;;;;;5028757;28;20921;-68
2024/04/01 02:49:46;;;;;;;10.53;2.40;;;11.00;99.90;;;;;;5028526;28;21018;-67
2024/04/01 02:52:13;;;;;;;8.50;2.00;;;10.80;99.90;;;;;;5027873;28;20487;-67
2024/04/01 02:54:39;;;;;;;7.70;2.10;;;10.80;99.90;;;;;;5027905;28;20544;-67
2024/04/01 02:57:06;;;;;;;9.40;1.90;;;10.80;99.90;;;;;;5028807;28;20972;-66
2024/04/01 02:59:32;;;;;;;9.90;2.20;;;10.80;99.90;;;;;;5028115;28;20833;-66
2024/04/01 03:01:59;;;;;;;7.70;1.83;;;10.70;99.90;;;;;;5027271;28;20938;-67
2024/04/01 03:04:26;;;;;;;10.40;2.20;;;10.80;99.90;;;;;;5028036;28;20836;-66
2024/04/01 03:06:55;;;;;;;7.47;1.80;;;10.70;99.90;;;;;;5028082;28;20942;-67
2024/04/01 03:09:21;;;;;;;7.70;1.90;;;10.90;99.90;;;;;;5028359;28;20469;-67
2024/04/01 03:11:48;;;;;;;10.97;2.10;;;10.90;99.90;;;;;;5020884;28;20453;-67
2024/04/01 03:14:14;;;;;;;12.70;2.33;;;10.90;99.90;;;;;;5026986;28;20487;-67
2024/04/01 03:16:41;;;;;;;8.73;1.90;;;10.90;99.90;;;;;;5027262;28;20482;-67
2024/04/01 03:19:07;;;;;;;8.87;1.60;;;10.90;99.90;;;;;;5028119;28;20474;-67
2024/04/01 03:21:34;;;;;;;9.27;2.10;;;10.90;99.90;;;;;;5027875;28;20932;-67
2024/04/01 03:24:01;;;;;;;7.13;1.70;;;10.90;99.90;;;;;;5027177;28;20469;-67
2024/04/01 03:26:28;;;;;;;9.60;2.17;;;10.90;99.90;;;;;;5027774;28;20477;-67
2024/04/01 03:28:54;;;;;;;9.60;1.90;;;10.90;99.90;;;;;;5027878;28;20441;-67
2024/04/01 03:31:21;;;;;;;9.03;2.10;;;10.80;99.90;;;;;;5028664;28;20450;-67
2024/04/01 03:33:47;;;;;;;8.60;1.47;;;10.80;99.90;;;;;;5027273;28;20512;-67
2024/04/01 03:36:14;;;;;;;7.80;2.10;;;10.80;99.90;;;;;;5027643;28;20825;-67
2024/04/01 03:38:41;;;;;;;7.40;1.50;;;10.80;99.90;;;;;;5027755;28;20463;-67
2024/04/01 03:41:08;;;;;;;11.73;2.20;;;10.80;99.90;;;;;;5027964;28;20450;-67
2024/04/01 03:43:35;;;;;;;8.00;1.90;;;10.80;99.90;;;;;;5026534;28;20979;-67
2024/04/01 03:46:02;;;;;;;8.67;2.30;;;10.70;99.90;;;;;;5027131;28;20526;-67
2024/04/01 03:48:29;;;;;;;8.23;1.63;;;10.50;99.90;;;;;;5027675;28;20447;-66
2024/04/01 03:50:55;;;;;;;9.13;1.67;;;10.70;99.90;;;;;;5027590;28;20445;-66
2024/04/01 03:53:22;;;;;;;9.87;2.23;;;10.80;99.90;;;;;;5027138;28;20526;-67
2024/04/01 03:55:48;;;;;;;9.53;2.00;;;10.80;99.90;;;;;;5026874;28;20823;-66
2024/04/01 03:58:17;;;;;;;11.43;1.87;;;10.70;99.90;;;;;;5027320;28;20939;-66
2024/04/01 04:00:43;;;;;;;10.57;2.27;;;10.70;99.90;;;;;;5027430;28;20448;-66
2024/04/01 04:03:11;;;;;;;7.57;1.80;;;10.80;99.90;;;;;;5026931;28;20445;-65
2024/04/01 04:05:37;;;;;;;8.43;2.00;;;10.80;99.90;;;;;;5027016;28;21261;-66
2024/04/01 04:08:04;;;;;;;9.77;1.97;;;10.80;99.90;;;;;;5019811;28;20549;-67
2024/04/01 04:10:31;;;;;;;8.10;2.30;;;10.80;99.90;;;;;;5027489;28;20450;-66
2024/04/01 04:12:58;;;;;;;8.80;2.10;;;10.60;99.90;;;;;;5026821;28;21029;-66
2024/04/01 04:15:25;;;;;;;7.10;1.50;;;10.60;99.90;;;;;;5027222;28;20473;-67
2024/04/01 04:17:52;;;;;;;8.93;1.83;;;10.70;99.90;;;;;;5025740;28;20831;-67
2024/04/01 04:20:19;;;;;;;8.57;1.70;;;10.60;99.90;;;;;;5027648;28;20445;-67
2024/04/01 04:22:45;;;;;;;8.77;1.90;;;10.60;99.90;;;;;;5026937;28;20449;-67
2024/04/01 04:25:13;;;;;;;8.70;2.00;;;10.60;99.90;;;;;;5027049;28;20569;-66
2024/04/01 04:27:40;;;;;;;9.00;2.00;;;10.60;99.90;;;;;;5027086;28;20453;-67
2024/04/01 04:30:11;;;;;;;7.63;2.30;;;10.60;99.90;;;;;;5027176;28;20457;-65
2024/04/01 04:32:40;;;;;;;9.60;2.27;;;10.60;99.90;;;;;;5026641;28;20487;-67
2024/04/01 04:35:09;;;;;;;7.73;2.03;;;10.70;99.90;;;;;;5035441;28;21160;-67
2024/04/01 04:37:36;;;;;;;9.43;2.63;;;10.60;99.90;;;;;;5027103;28;20448;-67
2024/04/01 04:40:04;;;;;;;10.13;2.10;;;10.50;99.90;;;;;;5027297;28;20449;-67
2024/04/01 04:42:30;;;;;;;8.00;1.90;;;10.50;99.90;;;;;;5026777;28;20445;-65
2024/04/01 04:44:57;;;;;;;8.37;2.27;;;10.60;99.90;;;;;;5026755;28;20495;-67
2024/04/01 04:47:23;;;;;;;8.30;2.23;;;10.60;99.90;;;;;;5027157;28;20443;-67
2024/04/01 04:49:52;;;;;;;8.53;2.60;;;10.60;99.90;;;;;;5026842;28;20456;-68
2024/04/01 04:52:18;;;;;;;8.60;2.40;;;10.60;99.90;;;;;;5027071;28;20452;-67
2024/04/01 04:54:45;;;;;;;8.83;2.37;;;10.60;99.90;;;;;;5025525;28;20461;-67
2024/04/01 04:57:11;;;;;;;11.13;2.70;;;10.60;99.90;;;;;;5025410;28;20454;-67
2024/04/01 04:59:38;;;;;;;10.77;2.83;;;10.50;99.90;;;;;;5026000;28;20452;-67
2024/04/01 05:02:06;;;;;;;8.60;2.20;;;10.50;99.90;;;;;;5026597;28;20444;-67
2024/04/01 05:04:34;;;;;;;8.17;2.80;;;10.50;99.90;;;;;;5025050;28;20478;-67
2024/04/01 05:07:03;;;;;;;10.03;3.17;;;10.40;99.90;;;;;;5025304;28;20445;-67
2024/04/01 05:09:30;;;;;;;10.43;3.07;;;10.40;99.90;;;;;;5026810;28;20450;-67
2024/04/01 05:11:57;;;;;;;8.77;2.90;;;10.40;99.90;;;;;;5026027;28;20941;-66
2024/04/01 05:14:23;;;;;;;13.73;3.57;;;10.40;99.90;;;;;;5025630;28;20487;-67
2024/04/01 05:16:52;;;;;;;9.63;3.67;;;10.30;99.90;;;;;;5025721;28;20444;-67
2024/04/01 05:19:19;;;;;;;8.77;3.10;;;10.30;99.90;;;;;;5026556;28;20448;-66
2024/04/01 05:21:46;;;;;;;11.30;3.93;;;10.30;99.90;;;;;;5026073;28;20448;-66
2024/04/01 05:24:15;;;;;;;9.20;3.70;;;10.40;99.90;;;;;;5025955;28;20476;-67
2024/04/01 05:26:42;;;;;;;13.20;4.03;;;10.40;99.90;;;;;;5025988;28;20459;-67
2024/04/01 05:29:10;;;;;;;10.07;5.07;;;10.40;99.90;;;;;;5026369;28;20457;-67
2024/04/01 05:31:38;;;;;;;13.97;5.93;;;10.40;99.90;;;;;;5026349;28;20509;-66
2024/04/01 05:34:04;;;;;;;11.70;5.83;;;10.30;99.90;;;;;;5025694;28;20486;-67
2024/04/01 05:36:32;;;;;;;10.53;5.30;;;10.20;99.90;;;;;;5026054;28;20448;-65
2024/04/01 05:38:58;;;;;;;11.70;5.40;;;10.10;99.90;;;;;;5025439;28;20462;-66
2024/04/01 05:41:26;;;;;;;14.43;6.13;;;10.10;99.90;;;;;;5026212;28;20442;-66
2024/04/01 05:43:53;;;;;;;11.37;5.17;;;10.00;99.90;;;;;;5025238;28;20482;-66
2024/04/01 05:46:21;;;;;;;12.00;5.70;;;10.00;99.90;;;;;;5025961;28;20806;-66
2024/04/01 05:48:47;;;;;;;13.20;6.77;;;10.00;99.90;;;;;;5029895;28;21250;-66
2024/04/01 05:51:14;;;;;;;14.70;6.37;;;10.00;99.90;;;;;;5030244;28;21024;-67
2024/04/01 05:53:40;;;;;;;12.53;6.33;;;9.90;99.90;;;;;;5029273;28;20490;-68
2024/04/01 05:56:07;;;;;;;13.80;6.70;;;9.90;99.90;;;;;;5029575;28;20447;-66
2024/04/01 05:58:35;;;;;;;12.13;6.40;;;9.90;99.90;;;;;;5029901;28;20828;-65
2024/04/01 06:01:03;;;;;;;15.40;7.10;;;10.00;99.90;;;;;;5029413;28;20524;-67
2024/04/01 06:03:29;;;;;;;15.33;7.10;;;9.90;99.90;;;;;;5029003;28;20475;-65
2024/04/01 06:05:56;;;;;;;14.70;7.00;;;10.00;99.90;;;;;;5028787;28;20467;-66
2024/04/01 06:08:22;;;;;;;13.13;6.77;;;10.00;99.90;;;;;;5029678;28;20447;-67
2024/04/01 06:10:50;;;;;;;12.30;6.80;;;10.00;99.90;;;;;;5029354;28;20509;-66
2024/04/01 06:13:16;;;;;;;11.63;6.37;;;10.00;99.90;;;;;;5029255;28;20482;-66
2024/04/01 06:15:45;;;;;;;13.27;7.60;;;10.00;99.90;;;;;;5029140;28;20452;-66
2024/04/01 06:18:11;;;;;;;13.57;6.60;;;10.00;99.90;;;;;;5029611;28;20556;-65
2024/04/01 06:20:39;;;;;;;12.43;7.40;;;10.10;99.90;;;;;;5029591;28;20468;-66
2024/04/01 06:23:09;;;;;;;14.70;6.80;;;10.00;99.90;;;;;;5029265;28;20451;-66
2024/04/01 06:25:40;;;;;;;12.40;7.33;;;10.00;99.90;;;;;;5029245;28;21003;-66
2024/04/01 06:28:06;;;;;;;10.63;6.33;;;10.10;99.90;;;;;;5029077;28;20961;-67
2024/04/01 06:30:33;;;;;;;11.70;6.90;;;10.10;99.90;;;;;;5029468;28;20459;-67
2024/04/01 06:33:01;;;;;;;12.13;6.80;;;10.10;99.90;;;;;;5028489;28;20444;-66
2024/04/01 06:35:28;;;;;;;10.60;5.57;;;10.10;99.90;;;;;;5028890;28;20468;-66
2024/04/01 06:37:54;;;;;;;10.90;5.93;;;10.10;99.90;;;;;;5028986;28;20456;-67
2024/04/01 06:40:21;;;;;;;11.63;5.67;;;10.00;99.90;;;;;;5029127;28;20456;-66
2024/04/01 06:42:47;;;;;;;10.50;5.20;;;10.00;99.90;;;;;;5028348;28;20460;-66
2024/04/01 06:45:14;;;;;;;10.90;5.47;;;10.00;99.90;;;;;;5025575;28;20835;-67
2024/04/01 06:47:40;;;;;;;11.23;5.70;;;10.00;99.90;;;;;;5024460;28;20457;-66
2024/04/01 06:50:09;;;;;;;11.30;5.77;;;10.10;99.90;;;;;;5028362;28;20448;-67
2024/04/01 06:52:35;;;;;;;10.70;4.93;;;10.10;99.90;;;;;;5025007;28;20453;-67
2024/04/01 06:55:02;;;;;;;9.67;4.83;;;10.00;99.90;;;;;;5027349;28;20605;-67
2024/04/01 06:57:28;;;;;;;9.37;5.00;;;10.00;99.90;;;;;;5028142;28;20440;-66
2024/04/01 06:59:55;;;;;;;15.23;4.70;;;9.90;99.90;;;;;;5026909;28;20499;-67
2024/04/01 07:02:21;;;;;;;9.97;4.47;;;9.90;99.90;;;;;;5027871;28;20459;-67
2024/04/01 07:04:48;;;;;;;9.47;4.50;;;9.90;99.90;;;;;;5027218;28;20471;-67
2024/04/01 07:07:16;;;;;;;9.83;4.23;;;9.90;99.90;;;;;;5028110;28;20459;-67
2024/04/01 07:09:43;;;;;;;12.13;4.23;;;10.00;99.90;;;;;;5027202;28;20558;-67
2024/04/01 07:12:09;;;;;;;9.03;3.73;;;10.00;99.90;;;;;;5017414;28;20490;-66
2024/04/01 07:14:36;;;;;;;8.43;3.10;;;10.00;99.90;;;;;;5023606;28;20495;-66
2024/04/01 07:17:02;;;;;;;8.37;3.50;;;10.00;99.90;;;;;;5024070;28;20457;-67
2024/04/01 07:19:29;;;;;;;7.87;2.90;;;10.00;99.90;;;;;;5023149;28;20997;-67
2024/04/01 07:21:55;;;;;;;8.30;2.80;;;10.00;99.90;;;;;;5018058;28;20446;-67
2024/04/01 07:24:23;;;;;;;7.40;2.40;;;10.00;99.90;;;;;;5027110;28;20562;-67
2024/04/01 07:26:50;;;;;;;8.23;2.20;;;10.00;99.90;;;;;;5027026;28;20968;-67
2024/04/01 07:29:17;;;;;;;10.50;1.80;;;10.00;99.90;;;;;;5019640;28;20444;-67
2024/04/01 07:31:42;;;;;;;10.10;1.90;;;10.00;99.90;;;;;;5011044;28;20456;-67
2024/04/01 07:34:09;;;;;;;9.63;1.53;;;9.90;99.90;;;;;;5023046;28;20530;-67
2024/04/01 07:36:35;;;;;;;7.10;1.33;;;9.90;99.90;;;;;;5023310;28;20447;-67
2024/04/01 07:39:03;;;;;;;7.13;1.07;;;9.90;99.90;;;;;;5019122;28;20447;-68
2024/04/01 07:41:30;;;;;;;6.30;0.90;;;9.90;99.90;;;;;;5020718;28;20862;-66
2024/04/01 07:43:57;;;;;;;6.53;1.03;;;9.90;99.90;;;;;;5016422;28;20562;-66
2024/04/01 07:46:23;;;;;;;6.57;0.70;;;9.80;99.90;;;;;;5026671;28;20943;-67
2024/04/01 07:48:50;;;;;;;6.40;0.50;;;9.80;99.90;;;;;;5027079;28;20538;-67
2024/04/01 07:51:16;;;;;;;6.67;0.60;;;9.80;99.90;;;;;;5016807;28;20451;-65
2024/04/01 07:53:43;;;;;;;6.00;0.50;;;9.70;99.90;;;;;;5023534;28;20482;-67
2024/04/01 07:56:09;;;;;;;5.97;0.37;;;9.70;99.90;;;;;;5014108;28;20443;-67
2024/04/01 07:58:37;;;;;;;6.00;0.50;;;9.70;99.90;;;;;;5007577;28;20451;-67
2024/04/01 08:01:05;;;;;;;5.97;0.50;;;9.70;99.90;;;;;;5007190;28;20447;-68
2024/04/01 08:03:32;;;;;;;6.23;0.50;;;9.70;99.90;;;;;;5007203;28;20487;-67
2024/04/01 08:05:58;;;;;;;6.97;0.50;;;9.70;99.90;;;;;;5007090;28;20984;-68
2024/04/01 08:08:25;;;;;;;6.50;0.80;;;9.70;99.90;;;;;;5007899;28;20478;-67
2024/04/01 08:10:52;;;;;;;6.77;0.60;;;9.70;99.90;;;;;;5006697;28;20939;-67
2024/04/01 08:13:18;;;;;;;6.20;0.60;;;9.70;99.90;;;;;;5010051;28;20512;-67
2024/04/01 08:15:46;;;;;;;6.20;0.63;;;9.70;99.90;;;;;;5017904;28;20460;-67
2024/04/01 08:18:12;;;;;;;7.17;0.70;;;9.80;99.90;;;;;;5014783;28;20972;-67
2024/04/01 08:20:40;;;;;;;6.30;0.67;;;9.80;99.90;;;;;;5010334;28;21016;-67
2024/04/01 08:23:06;;;;;;;5.90;0.40;;;9.90;99.90;;;;;;5023344;28;20556;-67
2024/04/01 08:25:33;;;;;;;6.53;0.50;;;9.90;99.90;;;;;;5006054;28;20588;-68
2024/04/01 08:27:59;;;;;;;8.03;0.50;;;10.00;99.90;;;;;;5006709;28;20460;-67
2024/04/01 08:30:26;;;;;;;6.60;0.83;;;10.10;99.90;;;;;;5007384;28;20445;-67
2024/04/01 08:32:53;;;;;;;7.63;1.30;;;10.10;99.90;;;;;;5007832;28;20991;-68
2024/04/01 08:35:20;;;;;;;6.27;0.83;;;10.20;99.90;;;;;;5025908;28;20467;-67
2024/04/01 08:37:46;;;;;;;6.60;0.80;;;10.20;99.90;;;;;;5026184;28;20463;-67
2024/04/01 08:40:13;;;;;;;7.00;1.03;;;10.30;99.90;;;;;;5026519;28;20566;-67
2024/04/01 08:42:44;;;;;;;6.40;0.80;;;10.40;99.90;;;;;;5025733;28;21099;-67
2024/04/01 08:45:13;;;;;;;6.20;1.00;;;10.40;99.90;;;;;;5024108;28;20484;-67
2024/04/01 08:47:43;;;;;;;6.30;0.70;;;10.50;99.90;;;;;;5026582;28;20449;-68
2024/04/01 08:50:19;;;;;;;6.90;0.57;;;10.60;99.90;;;;;;5035253;28;20460;-67
2024/04/01 08:52:52;;;;;;;6.30;0.80;;;10.60;99.90;;;;;;5025921;28;20449;-68
2024/04/01 08:55:20;;;;;;;6.30;0.70;;;10.70;99.90;;;;;;5026393;28;20469;-67
2024/04/01 08:57:47;;;;;;;6.73;0.73;;;10.80;99.90;;;;;;5026319;28;20453;-67
2024/04/01 09:00:14;;;;;;;6.17;0.90;;;10.80;99.90;;;;;;5026577;28;20464;-67
2024/04/01 09:02:40;;;;;;;7.50;1.40;;;10.70;99.90;;;;;;5025927;28;20461;-67
2024/04/01 09:05:08;;;;;;;6.20;0.60;;;10.60;99.90;;;;;;5042529;28;20500;-67
2024/04/01 09:07:36;;;;;;;6.37;0.53;;;10.50;99.90;;;;;;5026658;28;20453;-67
2024/04/01 09:10:03;;;;;;;7.40;0.70;;;10.40;99.90;;;;;;5026093;28;20767;-67
2024/04/01 09:12:30;;;;;;;5.67;0.40;;;10.40;99.90;;;;;;5026418;28;20448;-67
2024/04/01 09:14:56;;;;;;;7.17;1.57;;;10.30;99.90;;;;;;5025308;28;20490;-67
2024/04/01 09:17:26;;;;;;;6.23;0.60;;;10.20;99.90;;;;;;5025900;28;21149;-67
2024/04/01 09:19:53;;;;;;;5.90;0.57;;;10.20;99.90;;;;;;5025648;28;20447;-67
2024/04/01 09:22:19;;;;;;;6.13;0.70;;;10.20;99.90;;;;;;5029748;28;20456;-67
2024/04/01 09:24:49;;;;;;;6.90;0.60;;;10.40;99.90;;;;;;5029025;28;20483;-67
2024/04/01 09:27:15;;;;;;;6.80;0.60;;;10.60;99.90;;;;;;5029647;28;21039;-67
2024/04/01 09:29:42;;;;;;;5.80;0.50;;;10.70;99.90;;;;;;5029809;28;20941;-68
2024/04/01 09:32:08;;;;;;;5.93;0.50;;;10.80;99.90;;;;;;5029336;28;20452;-66
2024/04/01 09:34:35;;;;;;;6.00;0.60;;;10.90;99.90;;;;;;5028710;28;20469;-69
2024/04/01 09:37:01;;;;;;;5.63;0.40;;;10.90;99.90;;;;;;5028905;28;20444;-66
2024/04/01 09:39:29;;;;;;;6.40;0.60;;;10.90;99.90;;;;;;5029461;28;20452;-67
2024/04/01 09:41:58;;;;;;;6.40;0.60;;;11.10;99.90;;;;;;5029524;28;20441;-66
2024/04/01 09:44:25;;;;;;;5.63;0.50;;;11.30;99.90;;;;;;5028991;28;20484;-66
2024/04/01 09:46:53;;;;;;;5.80;0.50;;;11.40;99.90;;;;;;5029083;28;20449;-67
2024/04/01 09:49:21;;;;;;;5.60;0.40;;;11.40;99.90;;;;;;5029321;28;20909;-67
2024/04/01 09:51:47;;;;;;;5.47;0.30;;;11.50;99.90;;;;;;5029369;28;20585;-67
2024/04/01 09:54:14;;;;;;;5.70;0.50;;;11.70;99.90;;;;;;5029766;28;20544;-67
2024/04/01 09:57:22;;;;;;;5.60;0.40;;;11.70;99.90;;;;;;5027819;28;20437;-68
2024/04/01 10:00:19;;;;;;;6.10;0.50;;;11.60;99.90;;;;;;5042704;28;20454;-67
2024/04/01 10:03:23;;;;;;;5.40;0.30;;;11.30;99.90;;;;;;5027096;28;20459;-69
2024/04/01 10:06:32;;;;;;;6.80;0.50;;;11.10;99.90;;;;;;5016562;28;20852;-67
2024/04/01 10:09:27;;;;;;;5.70;0.30;;;11.00;99.90;;;;;;5019831;28;20438;-66
2024/04/01 10:12:10;;;;;;;5.90;0.60;;;11.10;99.90;;;;;;5023921;28;20476;-66
2024/04/01 10:15:21;;;;;;;5.67;0.40;;;11.40;99.90;;;;;;5019320;28;20461;-66
2024/04/01 10:18:02;;;;;;;6.30;0.40;;;11.70;99.90;;;;;;5021612;28;20997;-66
2024/04/01 10:20:55;;;;;;;5.90;0.40;;;11.80;99.90;;;;;;5015394;28;20449;-65
2024/04/01 10:23:55;;;;;;;6.07;0.50;;;11.90;99.90;;;;;;5021100;28;20445;-66
2024/04/01 10:26:47;;;;;;;5.60;0.40;;;11.90;99.90;;;;;;5028859;28;20433;-66
2024/04/01 10:29:30;;;;;;;5.43;0.40;;;11.90;99.90;;;;;;5019483;28;20195;-66
2024/04/01 10:32:42;;;;;;;5.50;0.30;;;11.90;99.90;;;;;;5036400;28;20446;-67
2024/04/01 10:35:39;;;;;;;5.73;0.50;;;11.80;99.90;;;;;;5024570;28;20456;-66
2024/04/01 10:38:56;;;;;;;5.60;0.40;;;11.70;99.90;;;;;;5020677;28;20531;-66
2024/04/01 10:42:06;;;;;;;5.43;0.30;;;11.50;99.90;;;;;;4955097;28;20455;-66
2024/04/01 10:45:13;;;;;;;5.40;0.30;;;11.40;99.90;;;;;;4955027;28;20483;-66
2024/04/01 10:48:14;;;;;;;6.83;0.80;;;11.30;99.90;;;;;;5018081;28;20453;-66
2024/04/01 10:51:23;;;;;;;6.93;1.50;;;11.20;99.90;;;;;;5037561;28;20446;-67
2024/04/01 10:54:05;;;;;;;5.70;0.50;;;11.20;99.90;;;;;;4993890;28;21004;-67
2024/04/01 10:57:22;;;;;;;5.33;0.30;;;11.30;99.90;;;;;;5019887;28;20467;-68
2024/04/01 11:00:19;;;;;;;5.30;0.30;;;11.50;99.90;;;;;;5018692;28;20475;-67
2024/04/01 11:03:21;;;;;;;5.40;0.30;;;11.60;99.90;;;;;;5016203;28;20721;-67
2024/04/01 11:06:18;;;;;;;5.60;0.40;;;11.70;99.90;;;;;;4990480;28;20495;-68
2024/04/01 11:08:57;;;;;;;5.37;0.30;;;11.80;99.90;;;;;;5018377;28;20450;-67
2024/04/01 11:11:35;;;;;;;5.57;0.40;;;11.80;99.90;;;;;;5024797;28;20938;-67
2024/04/01 11:14:04;;;;;;;5.50;0.30;;;11.80;99.90;;;;;;5019139;28;20541;-65
2024/04/01 11:16:33;;;;;;;5.30;0.30;;;11.80;99.90;;;;;;5026799;28;20442;-66
2024/04/01 11:19:24;;;;;;;5.50;0.40;;;12.00;99.90;;;;;;5027170;28;20856;-67
2024/04/01 11:21:52;;;;;;;5.40;0.30;;;12.10;99.90;;;;;;5018481;28;20457;-66
2024/04/01 11:24:38;;;;;;;5.40;0.30;;;12.10;99.90;;;;;;5020251;28;20492;-67
2024/04/01 11:27:37;;;;;;;5.30;0.30;;;12.20;99.90;;;;;;5026412;28;20962;-67
2024/04/01 11:30:20;;;;;;;7.50;0.43;;;12.20;99.90;;;;;;5012267;28;20460;-67
2024/04/01 11:33:04;;;;;;;5.47;0.40;;;12.20;99.90;;;;;;5023406;28;21024;-66
2024/04/01 11:35:45;;;;;;;5.90;0.40;;;12.20;99.90;;;;;;5019150;28;20550;-67
2024/04/01 11:38:23;;;;;;;5.53;0.40;;;12.20;99.90;;;;;;5036486;28;20824;-66
2024/04/01 11:40:51;;;;;;;5.40;0.30;;;11.90;99.90;;;;;;5025388;28;20845;-67
2024/04/01 11:43:20;;;;;;;5.50;0.40;;;11.80;99.90;;;;;;5026135;28;20449;-66
2024/04/01 11:45:49;;;;;;;10.30;3.13;;;11.60;99.90;;;;;;5016809;28;21001;-64
2024/04/01 11:48:18;;;;;;;5.43;0.40;;;11.70;99.90;;;;;;5022856;28;20530;-66
2024/04/01 11:50:54;;;;;;;5.77;0.50;;;11.70;99.90;;;;;;5025077;28;20445;-66
2024/04/01 11:53:21;;;;;;;5.37;0.30;;;11.40;99.90;;;;;;5022825;28;20456;-68
2024/04/01 11:55:53;;;;;;;5.60;0.30;;;11.00;99.90;;;;;;5025723;28;20533;-66
2024/04/01 11:58:19;;;;;;;5.60;0.40;;;10.70;99.90;;;;;;5019102;28;20460;-67
2024/04/01 12:00:54;;;;;;;5.50;0.40;;;10.30;99.90;;;;;;5018733;28;20455;-67
2024/04/01 12:03:21;;;;;;;5.40;0.40;;;10.30;99.90;;;;;;5020661;28;20454;-68
2024/04/01 12:05:49;;;;;;;5.70;0.47;;;10.40;99.90;;;;;;5022752;28;20971;-69
2024/04/01 12:08:19;;;;;;;6.20;0.63;;;10.80;99.90;;;;;;5025909;28;21026;-67
2024/04/01 12:10:47;;;;;;;5.90;0.50;;;11.30;99.90;;;;;;5019842;28;20845;-68
2024/04/01 12:13:15;;;;;;;6.63;0.53;;;11.50;99.90;;;;;;5014568;28;20448;-66
2024/04/01 12:15:43;;;;;;;5.60;0.47;;;11.40;99.90;;;;;;5015743;28;21025;-69
2024/04/01 12:18:11;;;;;;;7.90;1.33;;;11.60;99.90;;;;;;5035080;28;20452;-68
2024/04/01 12:20:39;;;;;;;5.50;0.37;;;11.80;99.90;;;;;;5018919;28;20450;-68
2024/04/01 12:23:06;;;;;;;5.63;0.50;;;11.60;99.90;;;;;;5019822;28;20990;-68
2024/04/01 12:25:35;;;;;;;5.50;0.40;;;11.60;99.90;;;;;;5013003;28;20486;-67
2024/04/01 12:28:04;;;;;;;5.57;0.37;;;12.00;99.90;;;;;;5020207;28;20507;-67
2024/04/01 12:30:35;;;;;;;5.77;0.60;;;12.10;99.90;;;;;;5022373;28;20452;-68
2024/04/01 12:33:03;;;;;;;5.63;0.53;;;12.30;99.90;;;;;;5024055;28;20449;-68
2024/04/01 12:35:31;;;;;;;5.80;0.60;;;12.60;99.90;;;;;;5020365;28;20473;-67
2024/04/01 12:38:03;;;;;;;5.43;0.30;;;13.10;99.90;;;;;;5017944;28;20498;-68
2024/04/01 12:40:30;;;;;;;5.53;0.40;;;13.00;99.90;;;;;;5017621;28;20494;-67
2024/04/01 12:42:59;;;;;;;5.40;0.40;;;13.10;99.90;;;;;;5016715;28;21032;-67
2024/04/01 12:45:26;;;;;;;5.80;0.33;;;12.90;99.90;;;;;;5021010;28;20490;-67
2024/04/01 12:47:52;;;;;;;5.40;0.30;;;12.60;99.90;;;;;;5021056;28;20455;-66
2024/04/01 12:50:20;;;;;;;5.53;0.30;;;12.60;99.90;;;;;;5020298;28;20524;-67
2024/04/01 12:53:00;;;;;;;5.50;0.40;;;12.50;99.90;;;;;;5018184;28;20456;-66
2024/04/01 12:55:30;;;;;;;5.70;0.40;;;12.40;99.90;;;;;;5016371;28;20490;-67
2024/04/01 12:58:12;;;;;;;5.50;0.30;;;12.40;99.90;;;;;;5020295;28;20537;-67
2024/04/01 13:00:44;;;;;;;5.37;0.30;;;12.70;99.90;;;;;;5018516;28;20450;-67